Time;durP1;ratioP1;P1;durP2;ratioP2;P2;SDS_P1;SDS_P2;PMS_P1;PMS_P2;Temp;Humidity;BMP_temperature;BMP_pressure;BME280_temperature;BME280_humidity;BME280_pressure;Samples;Min_cycle;Max_cycle;Signal;HPM_P1;HPM_P2
2024/01/26 00:00:31;;;;;;;1.27;0.45;;;;;;;3.64;78.40;102093.00;15781109;28;20501;-51
2024/01/26 00:08:07;;;;;;;2.13;1.33;;;;;;;3.37;79.00;102095.38;15800012;28;20048;-49
2024/01/26 00:15:45;;;;;;;0.10;0.05;;;;;;;3.62;77.47;102110.03;15807235;28;20153;-50
2024/01/26 00:23:21;;;;;;;0.60;0.60;;;;;;;3.35;77.85;102107.91;15771251;28;20739;-52
2024/01/26 00:30:55;;;;;;;0.10;0.10;;;;;;;3.34;78.59;102096.44;15789613;28;20062;-50
2024/01/26 00:38:31;;;;;;;0.20;0.20;;;;;;;3.38;77.52;102086.44;15808014;28;20043;-50
2024/01/26 00:46:05;;;;;;;5.90;0.63;;;;;;;3.19;78.37;102076.53;15776988;28;20062;-52
2024/01/26 00:53:41;;;;;;;0.25;0.25;;;;;;;3.39;77.21;102078.31;15802386;28;20048;-51
2024/01/26 01:01:15;;;;;;;0.10;0.10;;;;;;;3.32;76.91;102087.78;15782882;28;20062;-55
2024/01/26 01:08:49;;;;;;;;;;;;;;;3.09;77.83;102080.94;15778677;28;20048;-53
2024/01/26 01:16:23;;;;;;;0.00;0.00;;;;;;;3.19;77.66;102074.72;15746921;23;19934;-46
2024/01/26 01:23:58;;;;;;;0.00;0.00;;;;;;;3.03;77.65;102071.66;15731391;28;20127;-49
2024/01/26 01:31:32;;;;;;;1.55;1.45;;;;;;;3.10;77.57;102072.00;15730982;28;20044;-50
2024/01/26 01:39:07;;;;;;;0.00;0.00;;;;;;;3.03;76.44;102064.56;15729685;28;20048;-50
2024/01/26 01:46:42;;;;;;;0.00;0.00;;;;;;;3.00;76.85;102074.56;15735626;28;20044;-51
2024/01/26 01:54:19;;;;;;;1.55;0.80;;;;;;;2.77;77.25;102047.31;15729056;28;20068;-47
2024/01/26 02:01:53;;;;;;;0.22;0.22;;;;;;;2.72;76.43;102045.03;15729135;28;20049;-51
2024/01/26 02:09:28;;;;;;;0.05;0.05;;;;;;;2.52;76.24;102025.50;15666794;28;20045;-51
2024/01/26 02:17:03;;;;;;;0.00;0.00;;;;;;;2.52;76.93;102011.41;15665663;28;20045;-49
2024/01/26 02:24:38;;;;;;;0.00;0.00;;;;;;;2.43;78.49;102017.47;15666103;28;20486;-52
2024/01/26 02:32:11;;;;;;;0.00;0.00;;;;;;;2.64;77.46;102012.19;15667309;28;20041;-52
2024/01/26 02:39:46;;;;;;;0.00;0.00;;;;;;;2.60;78.12;102002.78;15705819;28;20064;-54
2024/01/26 02:47:20;;;;;;;0.00;0.00;;;;;;;2.76;77.25;101996.09;15726156;28;20045;-54
2024/01/26 02:54:54;;;;;;;;;;;;;;;2.59;77.38;101993.16;15727353;28;20044;-54
2024/01/26 03:02:29;;;;;;;0.00;0.00;;;;;;;2.42;78.24;102006.00;15743854;28;19920;-52
2024/01/26 03:10:05;;;;;;;0.00;0.00;;;;;;;2.15;79.41;101995.03;15788869;28;20129;-48
2024/01/26 03:17:38;;;;;;;0.32;0.32;;;;;;;1.98;79.99;101989.25;15751036;28;20410;-48
2024/01/26 03:25:13;;;;;;;0.28;0.28;;;;;;;2.13;79.58;101971.28;15790093;28;20094;-50
2024/01/26 03:32:47;;;;;;;0.05;0.05;;;;;;;2.23;80.59;101972.22;15799629;28;20043;-51
2024/01/26 03:40:24;;;;;;;;;;;;;;;2.04;81.84;101954.34;15737494;28;20040;-51
2024/01/26 03:47:58;;;;;;;0.10;0.10;;;;;;;2.30;80.13;101948.72;15767314;28;20291;-51
2024/01/26 03:55:33;;;;;;;0.43;0.43;;;;;;;1.80;82.39;101929.84;15798390;28;20104;-50
2024/01/26 04:03:07;;;;;;;0.00;0.00;;;;;;;2.25;81.51;101935.84;15761946;28;20063;-51
2024/01/26 04:10:43;;;;;;;0.05;0.05;;;;;;;2.22;80.51;101914.06;15734338;28;20404;-47
2024/01/26 04:18:17;;;;;;;0.15;0.15;;;;;;;2.48;78.86;101904.81;15734101;28;20048;-51
2024/01/26 04:25:52;;;;;;;;;;;;;;;2.52;80.25;101906.22;15734013;28;20511;-48
2024/01/26 04:33:26;;;;;;;0.00;0.00;;;;;;;2.62;78.66;101901.00;15733063;28;19978;-50
2024/01/26 04:41:03;;;;;;;0.00;0.00;;;;;;;2.77;78.77;101909.44;15765814;28;20483;-49
2024/01/26 04:48:37;;;;;;;0.30;0.30;;;;;;;2.56;78.07;101914.75;15723901;28;20052;-52
2024/01/26 04:56:12;;;;;;;0.10;0.10;;;;;;;2.40;78.93;101891.34;15731784;28;20064;-50
2024/01/26 05:03:45;;;;;;;0.03;0.03;;;;;;;2.12;81.26;101889.31;15743644;28;20427;-51
2024/01/26 05:11:20;;;;;;;0.10;0.10;;;;;;;2.54;79.54;101879.59;15740214;28;20088;-49
2024/01/26 05:18:56;;;;;;;0.17;0.17;;;;;;;2.47;79.58;101870.47;15714927;28;20069;-51
2024/01/26 05:26:31;;;;;;;0.00;0.00;;;;;;;2.60;79.24;101863.16;15730204;28;20441;-51
2024/01/26 05:34:05;;;;;;;0.20;0.20;;;;;;;2.64;78.08;101856.63;15729541;28;20048;-47
2024/01/26 05:41:39;;;;;;;;;;;;;;;1.97;80.59;101844.59;15729797;28;20066;-51
2024/01/26 05:49:14;;;;;;;0.10;0.10;;;;;;;1.88;81.91;101833.94;15771433;28;20381;-51
2024/01/26 05:56:49;;;;;;;;;;;;;;;1.72;83.22;101816.66;15775222;28;20408;-52
2024/01/26 06:04:22;;;;;;;0.10;0.10;;;;;;;1.99;82.56;101815.34;15782627;28;20027;-53
2024/01/26 06:11:57;;;;;;;;;;;;;;;1.86;83.06;101791.69;15791588;28;20048;-50
2024/01/26 06:19:30;;;;;;;0.85;0.85;;;;;;;1.91;82.97;101799.25;15737751;28;19931;-54
2024/01/26 06:27:05;;;;;;;;;;;;;;;2.14;80.76;101781.44;15728746;28;20045;-51
2024/01/26 06:34:40;;;;;;;0.03;0.03;;;;;;;1.92;81.69;101761.25;15710494;28;19920;-53
2024/01/26 06:42:14;;;;;;;0.20;0.20;;;;;;;1.67;82.72;101765.06;15727161;28;20041;-52
2024/01/26 06:49:48;;;;;;;0.60;0.60;;;;;;;2.05;82.78;101738.03;15716381;28;20116;-56
2024/01/26 06:57:22;;;;;;;;;;;;;;;2.50;80.70;101750.97;15721102;28;20037;-51
2024/01/26 07:04:56;;;;;;;0.32;0.30;;;;;;;2.54;79.90;101752.38;15744850;28;20009;-54
2024/01/26 07:12:31;;;;;;;0.17;0.17;;;;;;;2.57;80.01;101740.69;15758816;23;20079;-50
2024/01/26 07:20:05;;;;;;;0.17;0.17;;;;;;;2.38;79.94;101736.13;15772689;28;20044;-50
2024/01/26 07:27:40;;;;;;;0.00;0.00;;;;;;;2.32;80.89;101726.88;15789405;28;20515;-48
2024/01/26 07:35:14;;;;;;;0.35;0.35;;;;;;;2.92;79.25;101711.06;15807857;28;20071;-49
2024/01/26 07:42:48;;;;;;;;;;;;;;;3.22;78.36;101702.19;15807855;28;20531;-48
2024/01/26 07:50:22;;;;;;;0.03;0.03;;;;;;;3.11;78.68;101697.81;15793822;28;20029;-51
2024/01/26 07:57:57;;;;;;;0.00;0.00;;;;;;;2.89;79.58;101683.03;15807842;28;20048;-49
2024/01/26 08:05:30;;;;;;;0.00;0.00;;;;;;;3.05;79.79;101663.91;15781928;28;20130;-50
2024/01/26 08:13:05;;;;;;;0.95;0.77;;;;;;;3.57;78.95;101652.00;15787356;28;20496;-54
2024/01/26 08:20:41;;;;;;;0.00;0.00;;;;;;;3.64;79.40;101632.84;15795775;28;20052;-48
2024/01/26 08:28:16;;;;;;;0.00;0.00;;;;;;;4.06;77.50;101620.84;15786981;28;20040;-48
2024/01/26 08:35:49;;;;;;;0.00;0.00;;;;;;;4.29;77.44;101617.78;15802286;28;20044;-50
2024/01/26 08:43:24;;;;;;;0.10;0.10;;;;;;;4.21;78.36;101596.47;15784325;28;20040;-51
2024/01/26 08:50:58;;;;;;;0.10;0.10;;;;;;;4.41;78.34;101600.69;15784724;28;20097;-49
2024/01/26 08:58:34;;;;;;;0.15;0.15;;;;;;;4.32;79.03;101588.28;15804090;28;20047;-52
2024/01/26 09:06:09;;;;;;;0.38;0.20;;;;;;;4.80;78.12;101571.16;15801077;28;20079;-47
2024/01/26 09:13:45;;;;;;;0.57;0.57;;;;;;;4.93;78.04;101549.50;15811860;28;20075;-52
2024/01/26 09:21:18;;;;;;;0.00;0.00;;;;;;;5.10;78.46;101500.75;15805915;28;20576;-49
2024/01/26 09:28:54;;;;;;;0.00;0.00;;;;;;;5.86;77.26;101497.31;15796963;28;20051;-49
2024/01/26 09:36:28;;;;;;;0.50;0.50;;;;;;;5.68;77.79;101504.56;15778161;28;20089;-50
2024/01/26 09:44:05;;;;;;;0.00;0.00;;;;;;;6.03;77.90;101468.94;15798078;28;20505;-51
2024/01/26 09:51:42;;;;;;;0.22;0.20;;;;;;;6.11;79.25;101471.63;15783239;28;20048;-49
2024/01/26 09:59:18;;;;;;;0.00;0.00;;;;;;;6.19;79.14;101442.31;15800385;28;20159;-50
2024/01/26 10:06:52;;;;;;;0.00;0.00;;;;;;;6.75;77.94;101432.66;15774215;28;20138;-49
2024/01/26 10:14:27;;;;;;;0.38;0.32;;;;;;;6.47;80.30;101389.50;15791139;28;20043;-48
2024/01/26 10:22:02;;;;;;;0.00;0.00;;;;;;;6.76;80.50;101388.13;15802029;28;20047;-50
2024/01/26 10:29:40;;;;;;;0.00;0.00;;;;;;;6.62;81.13;101363.84;15807972;28;20048;-49
2024/01/26 10:37:19;;;;;;;0.00;0.00;;;;;;;6.93;80.84;101360.44;15813290;28;20055;-51
2024/01/26 10:44:56;;;;;;;0.00;0.00;;;;;;;7.29;79.75;101349.31;15810954;28;20262;-51
2024/01/26 10:52:35;;;;;;;0.00;0.00;;;;;;;7.70;79.80;101320.53;15783804;28;20061;-52
2024/01/26 11:00:13;;;;;;;1.27;1.17;;;;;;;7.85;79.11;101285.84;15809613;28;20160;-48
2024/01/26 11:07:47;;;;;;;0.90;0.75;;;;;;;8.08;78.78;101256.41;15784437;28;20130;-49
2024/01/26 11:15:26;;;;;;;0.45;0.45;;;;;;;8.21;78.40;101243.25;15808256;28;20075;-54
2024/01/26 11:23:01;;;;;;;0.13;0.13;;;;;;;8.34;78.66;101234.59;15808633;28;20048;-50
2024/01/26 11:30:37;;;;;;;0.00;0.00;;;;;;;8.22;78.75;101201.31;15773742;28;20127;-49
2024/01/26 11:38:12;;;;;;;0.10;0.10;;;;;;;8.02;79.39;101212.53;15809600;28;20487;-48
2024/01/26 11:45:48;;;;;;;0.88;0.88;;;;;;;8.17;79.32;101197.34;15774726;28;20048;-52
2024/01/26 11:53:23;;;;;;;1.08;0.90;;;;;;;8.19;79.43;101173.06;15786868;28;20043;-56
2024/01/26 12:01:01;;;;;;;0.10;0.10;;;;;;;8.28;79.13;101161.28;15771630;28;20393;-50
2024/01/26 12:08:36;;;;;;;0.10;0.10;;;;;;;7.92;81.71;101121.88;15798638;28;20101;-50
2024/01/26 12:16:11;;;;;;;0.10;0.10;;;;;;;8.02;83.73;101118.97;15802678;28;20044;-52
2024/01/26 12:23:49;;;;;;;0.03;0.03;;;;;;;8.19;84.46;101112.41;15789069;28;20040;-51
2024/01/26 12:31:27;;;;;;;0.73;0.25;;;;;;;8.06;86.10;101084.66;15789205;28;20052;-49
2024/01/26 12:39:00;;;;;;;0.00;0.00;;;;;;;7.91;86.92;101066.78;15789932;28;20485;-48
2024/01/26 12:46:35;;;;;;;0.10;0.10;;;;;;;7.98;87.08;101048.19;15790266;28;20040;-50
2024/01/26 12:54:11;;;;;;;0.10;0.10;;;;;;;7.88;89.10;101056.47;15803362;28;20063;-49
2024/01/26 13:01:46;;;;;;;0.00;0.00;;;;;;;8.03;88.98;101039.59;15759826;28;20446;-49
2024/01/26 13:09:20;;;;;;;0.43;0.30;;;;;;;8.11;89.50;101021.63;15768096;28;20054;-45
2024/01/26 13:16:56;;;;;;;0.30;0.30;;;;;;;8.27;89.11;101017.06;15834648;23;20043;-46
2024/01/26 13:24:30;;;;;;;0.00;0.00;;;;;;;8.28;89.72;101002.66;15860991;28;20031;-48
2024/01/26 13:32:06;;;;;;;0.00;0.00;;;;;;;8.46;89.86;100981.69;15863149;28;20113;-45
2024/01/26 13:39:41;;;;;;;0.47;0.47;;;;;;;8.51;89.86;100979.28;15846492;28;20116;-44
2024/01/26 13:47:18;;;;;;;0.00;0.00;;;;;;;8.58;89.93;100964.13;15853782;28;20090;-44
2024/01/26 13:54:52;;;;;;;0.00;0.00;;;;;;;8.68;89.94;100959.28;15861613;28;20157;-47
2024/01/26 14:02:26;;;;;;;;;;;;;;;8.71;89.60;100941.16;15858709;28;20059;-44
2024/01/26 14:10:02;;;;;;;0.00;0.00;;;;;;;8.66;90.23;100944.41;15859019;28;19923;-44
2024/01/26 14:17:37;;;;;;;0.00;0.00;;;;;;;8.81;89.56;100920.25;15914316;27;20100;-45
2024/01/26 14:25:12;;;;;;;0.00;0.00;;;;;;;9.02;89.94;100925.56;15923355;28;20043;-49
2024/01/26 14:32:46;;;;;;;;;;;;;;;8.94;89.91;100920.34;15924356;28;20039;-44
2024/01/26 14:40:21;;;;;;;0.00;0.00;;;;;;;9.02;89.90;100943.47;15923492;28;19919;-46
2024/01/26 14:48:07;;;;;;;5.90;0.98;;;;;;;8.91;90.81;100944.84;15913764;28;20515;-45
2024/01/26 14:55:45;;;;;;;0.00;0.00;;;;;;;8.87;91.48;100981.88;15922452;28;20547;-44
2024/01/26 15:03:20;;;;;;;0.30;0.30;;;;;;;8.83;90.60;101001.19;15893649;28;20304;-44
2024/01/26 15:10:56;;;;;;;0.00;0.00;;;;;;;8.81;89.59;101021.94;15898368;28;20455;-44
2024/01/26 15:18:32;;;;;;;0.43;0.43;;;;;;;8.84;88.43;101056.38;15922916;28;20042;-44
2024/01/26 15:26:06;;;;;;;0.00;0.00;;;;;;;8.53;87.33;101078.06;15883155;27;20046;-48
2024/01/26 15:33:41;;;;;;;0.00;0.00;;;;;;;8.46;85.70;101083.34;15870123;28;20411;-44
2024/01/26 15:41:18;;;;;;;0.00;0.00;;;;;;;7.92;84.61;101087.13;15851634;28;20290;-44
2024/01/26 15:48:53;;;;;;;0.00;0.00;;;;;;;7.86;83.38;101119.13;15891789;27;20070;-45
2024/01/26 15:56:27;;;;;;;0.00;0.00;;;;;;;7.83;82.69;101170.25;15903157;27;20047;-46
2024/01/26 16:04:01;;;;;;;;;;;;;;;7.82;81.33;101181.97;15910546;27;20122;-46
2024/01/26 16:11:35;;;;;;;0.00;0.00;;;;;;;7.85;79.80;101184.28;15852314;28;19989;-45
2024/01/26 16:19:10;;;;;;;0.03;0.03;;;;;;;7.54;79.22;101198.56;15867264;28;20036;-45
2024/01/26 16:26:45;;;;;;;0.00;0.00;;;;;;;7.37;78.03;101235.25;15869705;28;20052;-46
2024/01/26 16:34:20;;;;;;;0.00;0.00;;;;;;;7.33;77.37;101239.28;15849857;28;20100;-50
2024/01/26 16:41:54;;;;;;;0.00;0.00;;;;;;;7.09;77.69;101253.63;15865829;28;20122;-46
2024/01/26 16:49:34;;;;;;;0.00;0.00;;;;;;;7.29;77.45;101269.19;15877749;27;20094;-48
2024/01/26 16:57:08;;;;;;;0.00;0.00;;;;;;;7.23;78.93;101302.78;15928434;27;20402;-50
2024/01/26 17:04:43;;;;;;;0.00;0.00;;;;;;;7.01;80.10;101322.22;15891077;27;20074;-48
2024/01/26 17:12:16;;;;;;;0.00;0.00;;;;;;;7.18;78.17;101347.00;15846099;28;20040;-46
2024/01/26 17:19:51;;;;;;;0.00;0.00;;;;;;;7.14;78.75;101378.56;15885646;27;20068;-46
2024/01/26 17:27:25;;;;;;;0.00;0.00;;;;;;;6.71;79.17;101398.50;15926069;27;20085;-49
2024/01/26 17:35:00;;;;;;;0.00;0.00;;;;;;;6.84;77.95;101433.50;15925846;27;20072;-44
2024/01/26 17:42:34;;;;;;;0.00;0.00;;;;;;;6.71;76.78;101450.00;15907211;27;20461;-47
2024/01/26 17:50:09;;;;;;;;;;;;;;;6.83;75.43;101488.69;15916612;27;20039;-48
2024/01/26 17:57:43;;;;;;;0.00;0.00;;;;;;;6.61;74.62;101500.84;15906568;27;19946;-46
2024/01/26 18:05:19;;;;;;;;;;;;;;;6.52;73.50;101539.19;15899033;27;20126;-50
2024/01/26 18:12:53;;;;;;;0.00;0.00;;;;;;;6.46;73.47;101553.19;15860584;28;20455;-49
2024/01/26 18:20:27;;;;;;;;;;;;;;;6.58;72.31;101583.06;15862417;28;20056;-47
2024/01/26 18:28:01;;;;;;;0.00;0.00;;;;;;;6.66;72.36;101615.06;15843036;28;20398;-47
2024/01/26 18:35:36;;;;;;;;;;;;;;;6.47;71.69;101631.34;15842858;28;20031;-52
2024/01/26 18:43:09;;;;;;;0.00;0.00;;;;;;;6.07;72.16;101660.34;15860865;28;19920;-46
2024/01/26 18:50:44;;;;;;;0.00;0.00;;;;;;;6.05;71.48;101683.66;15817796;28;20044;-47
2024/01/26 18:58:18;;;;;;;5.38;1.88;;;;;;;6.17;71.82;101694.88;15849186;28;20496;-46
2024/01/26 19:05:54;;;;;;;1.65;1.25;;;;;;;6.21;71.89;101719.41;15871024;28;20514;-44
2024/01/26 19:13:28;;;;;;;0.00;0.00;;;;;;;6.06;71.02;101720.00;15867279;22;20488;-47
2024/01/26 19:21:03;;;;;;;0.00;0.00;;;;;;;5.83;70.45;101737.44;15783514;28;20068;-50
2024/01/26 19:28:39;;;;;;;0.00;0.00;;;;;;;5.79;70.13;101754.72;15802187;28;20078;-47
2024/01/26 19:36:14;;;;;;;0.00;0.00;;;;;;;6.07;69.92;101785.63;15802365;28;20079;-45
2024/01/26 19:43:53;;;;;;;0.08;0.08;;;;;;;5.98;70.17;101817.69;15802513;28;20116;-51
2024/01/26 19:51:28;;;;;;;0.00;0.00;;;;;;;5.81;70.50;101820.16;15739602;28;20413;-44
2024/01/26 19:59:03;;;;;;;0.00;0.00;;;;;;;5.54;72.01;101825.56;15736859;28;20128;-45
2024/01/26 20:06:39;;;;;;;0.00;0.00;;;;;;;5.69;72.24;101852.50;15724223;28;20468;-48
2024/01/26 20:14:12;;;;;;;0.00;0.00;;;;;;;5.78;72.55;101856.91;15716142;28;20111;-46
2024/01/26 20:21:48;;;;;;;0.00;0.00;;;;;;;5.42;75.05;101862.22;15656046;28;20044;-48
2024/01/26 20:29:26;;;;;;;0.20;0.20;;;;;;;5.50;75.27;101877.44;15673398;28;20180;-44
2024/01/26 20:37:04;;;;;;;0.00;0.00;;;;;;;5.33;75.21;101887.06;15655323;28;20068;-46
2024/01/26 20:44:38;;;;;;;0.00;0.00;;;;;;;5.27;75.43;101895.63;15642052;28;20048;-44
2024/01/26 20:52:12;;;;;;;;;;;;;;;5.39;74.52;101915.75;15715537;28;20044;-45
2024/01/26 20:59:46;;;;;;;0.10;0.10;;;;;;;5.30;74.11;101928.13;15732696;28;20278;-45
2024/01/26 21:07:22;;;;;;;0.00;0.00;;;;;;;5.15;73.69;101960.69;15698104;28;20052;-48
2024/01/26 21:14:56;;;;;;;2.00;1.83;;;;;;;5.08;73.60;101963.06;15670852;28;20350;-47
2024/01/26 21:22:31;;;;;;;0.00;0.00;;;;;;;4.97;73.83;101982.72;15669565;28;20178;-45
2024/01/26 21:30:08;;;;;;;0.10;0.10;;;;;;;4.86;74.74;101978.41;15652400;28;20091;-45
2024/01/26 21:37:43;;;;;;;0.00;0.00;;;;;;;5.04;73.41;101972.34;15669202;28;20048;-50
2024/01/26 21:45:18;;;;;;;0.28;0.28;;;;;;;5.01;73.22;101984.09;15677851;28;20467;-51
2024/01/26 21:52:53;;;;;;;0.30;0.30;;;;;;;4.76;73.29;101985.56;15712204;28;20067;-47
2024/01/26 22:00:26;;;;;;;0.00;0.00;;;;;;;4.92;72.48;101986.78;15712850;28;20075;-45
2024/01/26 22:08:02;;;;;;;;;;;;;;;4.72;73.02;102000.13;15691254;28;20071;-47
2024/01/26 22:15:41;;;;;;;0.95;0.90;;;;;;;4.79;72.64;102013.69;15668643;28;19921;-47
2024/01/26 22:23:15;;;;;;;;;;;;;;;4.79;72.91;102033.13;15667820;28;20080;-50
2024/01/26 22:30:51;;;;;;;0.00;0.00;;;;;;;4.87;72.46;102040.41;15652818;28;19920;-49
2024/01/26 22:38:28;;;;;;;0.08;0.08;;;;;;;4.88;72.80;102058.06;15679962;28;20068;-50
2024/01/26 22:46:03;;;;;;;0.00;0.00;;;;;;;4.87;72.63;102061.72;15693528;28;20104;-49
2024/01/26 22:53:38;;;;;;;0.10;0.10;;;;;;;4.77;72.21;102061.72;15737693;28;20063;-49
2024/01/26 23:01:12;;;;;;;0.00;0.00;;;;;;;4.82;71.77;102075.44;15738640;28;20484;-44
2024/01/26 23:08:49;;;;;;;0.00;0.00;;;;;;;4.88;71.26;102092.63;15668994;28;20048;-49
2024/01/26 23:16:23;;;;;;;0.00;0.00;;;;;;;4.84;70.96;102099.22;15672150;28;20569;-45
2024/01/26 23:23:59;;;;;;;0.00;0.00;;;;;;;4.93;70.74;102103.69;15654370;28;20469;-50
2024/01/26 23:31:33;;;;;;;0.00;0.00;;;;;;;5.14;69.80;102111.56;15656528;28;20043;-48
2024/01/26 23:39:07;;;;;;;0.00;0.00;;;;;;;4.97;70.13;102122.91;15652884;28;20090;-47
2024/01/26 23:46:43;;;;;;;0.20;0.20;;;;;;;4.98;69.74;102125.41;15685161;28;20088;-51
2024/01/26 23:54:18;;;;;;;0.00;0.00;;;;;;;4.78;70.85;102142.34;15652630;28;20521;-50
